createdAt,value
2022-11-14T00:04:19.205Z,52.50
2022-11-14T00:07:06.215Z,52.60
2022-11-14T00:09:53.456Z,52.60
2022-11-14T00:12:40.373Z,52.70
2022-11-14T00:15:27.904Z,52.80
2022-11-14T00:18:15.013Z,52.80
2022-11-14T00:21:03.787Z,53.50
2022-11-14T00:23:51.075Z,52.80
2022-11-14T00:26:38.683Z,52.60
2022-11-14T00:29:25.455Z,52.60
2022-11-14T00:32:12.887Z,52.70
2022-11-14T00:34:59.932Z,52.70
2022-11-14T00:37:48.787Z,52.70
2022-11-14T00:40:35.717Z,52.50
2022-11-14T00:43:23.249Z,52.40
2022-11-14T00:46:10.210Z,52.40
2022-11-14T00:48:57.645Z,52.40
2022-11-14T00:51:44.554Z,52.30
2022-11-14T00:54:33.181Z,52.40
2022-11-14T00:57:20.301Z,52.50
2022-11-14T01:00:10.009Z,52.40
2022-11-14T01:02:58.340Z,52.50
2022-11-14T01:05:49.017Z,52.60
2022-11-14T01:08:36.476Z,52.70
2022-11-14T01:11:25.248Z,52.70
2022-11-14T01:14:12.404Z,52.70
2022-11-14T01:16:59.775Z,52.90
2022-11-14T01:19:46.653Z,53.00
2022-11-14T01:22:34.218Z,53.20
2022-11-14T01:25:21.512Z,53.20
2022-11-14T01:28:14.035Z,53.20
2022-11-14T01:31:11.458Z,53.30
2022-11-14T01:33:58.615Z,53.40
2022-11-14T01:36:45.740Z,53.50
2022-11-14T01:41:15.538Z,53.60
2022-11-14T01:44:04.441Z,53.60
2022-11-14T01:46:57.902Z,53.70
2022-11-14T01:49:51.275Z,53.80
2022-11-14T01:52:42.168Z,53.80
2022-11-14T01:55:29.498Z,53.70
2022-11-14T01:58:18.097Z,53.70
2022-11-14T02:01:06.875Z,53.70
2022-11-14T02:03:56.991Z,53.70
2022-11-14T02:06:45.611Z,53.70
2022-11-14T02:09:38.468Z,54.50
2022-11-14T02:12:25.612Z,53.70
2022-11-14T02:15:14.928Z,53.60
2022-11-14T02:18:04.024Z,53.70
2022-11-14T02:20:52.475Z,53.70
2022-11-14T02:23:39.310Z,53.70
2022-11-14T02:26:26.954Z,53.80
2022-11-14T02:29:14.121Z,53.70
2022-11-14T02:32:02.535Z,54.50
2022-11-14T02:34:51.657Z,53.70
2022-11-14T02:37:41.786Z,53.70
2022-11-14T02:40:28.631Z,53.80
2022-11-14T02:43:15.946Z,53.80
2022-11-14T02:46:05.828Z,54.00
2022-11-14T02:48:53.484Z,54.10
2022-11-14T02:51:41.292Z,54.30
2022-11-14T02:54:29.759Z,54.30
2022-11-14T02:57:16.615Z,54.40
2022-11-14T03:00:06.721Z,54.40
2022-11-14T03:02:56.027Z,54.40
2022-11-14T03:05:43.590Z,54.20
2022-11-14T03:08:31.350Z,54.30
2022-11-14T03:11:20.371Z,54.30
2022-11-14T03:14:07.746Z,54.30
2022-11-14T03:16:56.592Z,54.10
2022-11-14T03:19:43.744Z,54.10
2022-11-14T03:22:31.198Z,54.30
2022-11-14T03:25:18.470Z,54.30
2022-11-14T03:28:07.514Z,54.00
2022-11-14T03:30:54.477Z,54.00
2022-11-14T03:33:41.950Z,54.00
2022-11-14T03:36:29.276Z,54.20
2022-11-14T03:39:16.891Z,54.20
2022-11-14T03:42:05.472Z,54.00
2022-11-14T03:44:54.071Z,54.10
2022-11-14T03:52:31.949Z,54.00
2022-11-14T03:55:18.656Z,54.00
2022-11-14T03:58:06.317Z,54.20
2022-11-14T04:00:55.972Z,54.10
2022-11-14T04:03:43.436Z,54.00
2022-11-14T04:06:30.386Z,54.00
2022-11-14T04:09:17.883Z,54.00
2022-11-14T04:12:05.348Z,53.80
2022-11-14T04:14:52.533Z,53.80
2022-11-14T04:17:41.177Z,53.70
2022-11-14T04:20:28.730Z,53.60
2022-11-14T04:23:15.562Z,53.70
2022-11-14T04:26:03.124Z,53.90
2022-11-14T04:28:50.196Z,53.70
2022-11-14T04:31:37.666Z,53.70
2022-11-14T04:34:25.771Z,53.70
2022-11-14T04:37:13.253Z,53.90
2022-11-14T04:40:02.608Z,54.00
2022-11-14T04:42:50.370Z,54.50
2022-11-14T04:45:37.738Z,53.80
2022-11-14T04:48:25.208Z,53.80
2022-11-14T04:51:13.919Z,54.40
2022-11-14T04:54:01.212Z,53.70
2022-11-14T04:56:48.079Z,53.60
2022-11-14T04:59:35.733Z,53.60
2022-11-14T05:02:22.585Z,53.50
2022-11-14T05:05:10.638Z,53.40
2022-11-14T05:07:59.241Z,53.50
2022-11-14T05:10:47.467Z,53.60
2022-11-14T05:13:34.766Z,53.60
2022-11-14T05:16:22.225Z,53.50
2022-11-14T05:19:09.151Z,53.70
2022-11-14T05:21:56.508Z,53.60
2022-11-14T05:24:44.991Z,53.70
2022-11-14T05:27:32.870Z,53.70
2022-11-14T05:30:20.535Z,53.60
2022-11-14T05:33:07.821Z,53.60
2022-11-14T05:35:54.698Z,53.50
2022-11-14T05:38:43.083Z,53.40
2022-11-14T05:41:31.633Z,53.40
2022-11-14T05:44:19.000Z,53.30
2022-11-14T05:47:06.603Z,53.20
2022-11-14T05:49:54.301Z,53.20
2022-11-14T05:52:41.321Z,53.30
2022-11-14T05:55:28.724Z,53.40
2022-11-14T05:58:17.033Z,53.30
2022-11-14T06:01:06.681Z,53.30
2022-11-14T06:03:53.619Z,53.20
2022-11-14T06:06:41.159Z,53.10
2022-11-14T06:14:20.486Z,53.10
2022-11-14T06:17:07.431Z,53.00
2022-11-14T06:19:54.924Z,53.10
2022-11-14T06:22:41.981Z,53.10
2022-11-14T06:25:29.291Z,53.20
2022-11-14T06:28:16.683Z,53.10
2022-11-14T06:31:06.595Z,53.20
2022-11-14T06:33:54.555Z,53.20
2022-11-14T06:36:42.100Z,53.20
2022-11-14T06:39:28.959Z,53.20
2022-11-14T06:42:17.615Z,53.10
2022-11-14T06:45:05.333Z,53.00
2022-11-14T06:47:54.146Z,53.20
2022-11-14T06:50:41.163Z,53.10
2022-11-14T06:53:32.054Z,52.80
2022-11-14T06:56:21.250Z,52.60
2022-11-14T06:59:08.482Z,52.70
2022-11-14T07:01:55.504Z,52.70
2022-11-14T07:04:44.157Z,53.90
2022-11-14T07:07:32.015Z,53.40
2022-11-14T07:10:19.438Z,53.50
2022-11-14T07:13:06.503Z,53.60
2022-11-14T07:15:54.766Z,53.70
2022-11-14T07:18:42.346Z,53.80
2022-11-14T07:21:32.574Z,54.40
2022-11-14T07:24:19.644Z,54.00
2022-11-14T07:27:09.360Z,54.60
2022-11-14T07:29:56.781Z,54.20
2022-11-14T07:32:44.298Z,54.20
2022-11-14T07:35:31.576Z,53.90
2022-11-14T07:38:20.340Z,54.00
2022-11-14T07:41:11.213Z,53.60
2022-11-14T07:43:58.636Z,53.40
2022-11-14T07:51:38.614Z,53.20
2022-11-14T07:54:27.950Z,53.20
2022-11-14T07:57:15.158Z,52.90
2022-11-14T08:00:02.236Z,52.90
2022-11-14T08:02:49.779Z,53.10
2022-11-14T08:05:37.439Z,53.10
2022-11-14T08:08:24.943Z,52.90
2022-11-14T08:11:15.104Z,52.80
2022-11-14T08:14:10.601Z,52.60
2022-11-14T08:16:58.050Z,53.00
2022-11-14T08:19:45.169Z,53.00
2022-11-14T08:22:32.192Z,53.10
2022-11-14T08:30:13.743Z,52.50
2022-11-14T08:33:04.420Z,53.00
2022-11-14T08:35:52.056Z,52.50
2022-11-14T08:38:39.240Z,52.70
2022-11-14T08:41:26.414Z,52.70
2022-11-14T08:44:13.522Z,53.20
2022-11-14T08:47:03.815Z,53.30
2022-11-14T08:49:51.018Z,53.40
2022-11-14T08:52:38.704Z,53.30
2022-11-14T08:55:25.717Z,53.40
2022-11-14T08:58:13.232Z,53.10
2022-11-14T09:01:06.060Z,53.30
2022-11-14T09:03:59.637Z,53.30
2022-11-14T09:11:42.673Z,53.60
2022-11-14T09:14:30.033Z,53.40
2022-11-14T09:17:17.712Z,53.60
2022-11-14T09:20:07.200Z,53.30
2022-11-14T09:22:54.354Z,53.30
2022-11-14T09:25:41.348Z,52.80
2022-11-14T09:28:28.747Z,52.70
2022-11-14T09:31:15.866Z,52.10
2022-11-14T09:34:03.409Z,52.00
2022-11-14T09:36:51.923Z,51.90
2022-11-14T09:39:40.719Z,52.00
2022-11-14T09:42:55.696Z,52.60
2022-11-14T09:45:50.575Z,52.30
2022-11-14T09:48:37.992Z,52.50
2022-11-14T09:51:32.293Z,52.40
2022-11-14T09:54:25.826Z,52.10
2022-11-14T09:57:18.468Z,52.30
2022-11-14T10:01:46.149Z,52.00
2022-11-14T10:04:55.871Z,51.90
2022-11-14T10:08:01.565Z,51.70
2022-11-14T10:10:56.162Z,51.70
2022-11-14T10:14:26.495Z,51.90
2022-11-14T10:17:36.437Z,52.00
2022-11-14T10:20:38.116Z,51.90
2022-11-14T10:23:44.256Z,51.90
2022-11-14T10:28:10.917Z,52.00
2022-11-14T10:31:15.537Z,51.80
2022-11-14T10:34:10.515Z,51.60
2022-11-14T10:37:11.089Z,51.60
2022-11-14T10:40:14.729Z,51.40
2022-11-14T10:43:19.163Z,51.60
2022-11-14T10:46:17.284Z,51.50
2022-11-14T10:49:16.818Z,52.00
2022-11-14T10:52:08.642Z,51.80
2022-11-14T10:59:49.623Z,52.30
2022-11-14T11:02:53.562Z,52.20
2022-11-14T11:05:50.558Z,51.80
2022-11-14T11:09:01.262Z,51.60
2022-11-14T11:11:57.247Z,51.50
2022-11-14T11:14:46.062Z,51.60
2022-11-14T11:17:38.484Z,51.60
2022-11-14T11:20:33.672Z,52.30
2022-11-14T11:23:27.153Z,51.20
2022-11-14T11:27:53.215Z,51.10
2022-11-14T11:30:41.772Z,51.40
2022-11-14T11:33:31.771Z,51.40
2022-11-14T11:36:26.034Z,51.70
2022-11-14T11:39:26.396Z,51.80
2022-11-14T11:42:21.773Z,51.80
2022-11-14T11:45:18.053Z,51.90
2022-11-14T11:48:17.622Z,52.20
2022-11-14T11:51:11.605Z,52.20
2022-11-14T11:54:10.253Z,52.10
2022-11-14T12:01:52.793Z,51.70
2022-11-14T12:04:40.318Z,51.70
2022-11-14T12:07:46.085Z,51.60
2022-11-14T12:10:40.325Z,51.40
2022-11-14T12:14:09.466Z,51.30
2022-11-14T12:18:36.150Z,51.30
2022-11-14T12:21:46.704Z,50.90
2022-11-14T12:25:01.627Z,51.00
2022-11-14T12:28:09.858Z,51.20
2022-11-14T12:31:02.361Z,51.50
2022-11-14T12:33:59.687Z,52.10
2022-11-14T12:36:47.755Z,52.70
2022-11-14T12:39:35.125Z,51.90
2022-11-14T12:42:23.595Z,51.90
2022-11-14T12:46:01.783Z,51.90
2022-11-14T12:48:49.138Z,52.00
2022-11-14T12:57:02.671Z,51.50
2022-11-14T13:00:05.302Z,51.60
2022-11-14T13:03:33.682Z,51.40
2022-11-14T13:06:26.750Z,51.10
2022-11-14T13:09:54.759Z,51.00
2022-11-14T13:13:01.902Z,50.90
2022-11-14T13:16:10.903Z,51.30
2022-11-14T13:19:33.859Z,50.90
2022-11-14T13:22:40.950Z,50.90
2022-11-14T13:25:29.188Z,51.60
2022-11-14T13:28:49.973Z,51.80
2022-11-14T13:31:52.296Z,50.90
2022-11-14T13:34:52.641Z,51.10
2022-11-14T13:38:03.693Z,51.20
2022-11-14T13:41:06.760Z,51.30
2022-11-14T13:44:16.925Z,51.20
2022-11-14T13:47:50.930Z,51.50
2022-11-14T13:50:43.100Z,51.70
2022-11-14T13:53:33.440Z,51.80
2022-11-14T13:56:36.453Z,51.80
2022-11-14T14:00:07.310Z,51.90
2022-11-14T14:03:24.837Z,51.80
2022-11-14T14:06:36.945Z,51.40
2022-11-14T14:09:38.635Z,51.50
2022-11-14T14:12:55.904Z,51.50
2022-11-14T14:15:55.095Z,52.00
2022-11-14T14:19:00.961Z,51.50
2022-11-14T14:22:01.543Z,51.20
2022-11-14T14:24:59.677Z,51.00
2022-11-14T14:28:07.241Z,50.90
2022-11-14T14:31:12.567Z,50.90
2022-11-14T14:34:00.036Z,50.80
2022-11-14T14:36:53.680Z,50.50
2022-11-14T14:39:41.300Z,50.50
2022-11-14T14:42:37.154Z,50.30
2022-11-14T14:45:29.370Z,50.30
2022-11-14T14:48:22.437Z,50.30
2022-11-14T14:51:15.635Z,50.40
2022-11-14T14:54:07.731Z,50.70
2022-11-14T14:57:00.128Z,50.60
2022-11-14T14:59:47.362Z,50.40
2022-11-14T15:02:35.436Z,50.40
2022-11-14T15:05:24.944Z,50.30
2022-11-14T15:08:16.716Z,50.10
2022-11-14T15:11:07.068Z,50.60
2022-11-14T15:13:58.454Z,50.60
2022-11-14T15:16:50.158Z,50.80
2022-11-14T15:19:43.119Z,50.90
2022-11-14T15:22:30.195Z,50.70
2022-11-14T15:25:22.755Z,50.60
2022-11-14T15:28:22.127Z,50.60
2022-11-14T15:31:20.757Z,51.30
2022-11-14T15:34:25.393Z,50.70
2022-11-14T15:37:24.468Z,50.80
2022-11-14T15:40:21.249Z,50.90
2022-11-14T15:43:50.480Z,50.70
2022-11-14T15:46:47.227Z,50.80
2022-11-14T15:49:35.748Z,50.60
2022-11-14T15:57:18.174Z,50.50
2022-11-14T16:00:08.768Z,50.30
2022-11-14T16:02:58.571Z,50.30
2022-11-14T16:05:47.015Z,50.40
2022-11-14T16:08:34.472Z,50.40
2022-11-14T16:11:21.480Z,50.60
2022-11-14T16:14:08.874Z,50.60
2022-11-14T16:16:56.991Z,50.60
2022-11-14T16:19:45.261Z,50.50
2022-11-14T16:22:32.740Z,51.00
2022-11-14T16:25:24.176Z,50.60
2022-11-14T16:28:11.259Z,50.40
2022-11-14T16:30:58.995Z,50.30
2022-11-14T16:38:38.243Z,50.30
2022-11-14T16:41:25.362Z,49.90
2022-11-14T16:44:17.660Z,49.80
2022-11-14T16:47:04.858Z,50.00
2022-11-14T16:49:53.052Z,50.30
2022-11-14T16:52:40.579Z,50.60
2022-11-14T16:55:29.366Z,50.60
2022-11-14T16:58:16.246Z,50.60
2022-11-14T17:01:04.991Z,51.00
2022-11-14T17:03:53.462Z,51.10
2022-11-14T17:06:40.971Z,51.00
2022-11-14T17:09:28.496Z,50.80
2022-11-14T17:12:17.507Z,50.60
2022-11-14T17:15:05.454Z,50.50
2022-11-14T17:17:52.729Z,50.20
2022-11-14T17:20:40.009Z,50.30
2022-11-14T17:23:27.455Z,50.20
2022-11-14T17:31:12.068Z,51.10
2022-11-14T17:34:01.155Z,51.00
2022-11-14T17:36:48.920Z,50.90
2022-11-14T17:39:36.020Z,50.60
2022-11-14T17:42:23.437Z,50.60
2022-11-14T17:45:11.135Z,50.60
2022-11-14T17:47:59.733Z,50.50
2022-11-14T17:50:46.616Z,50.30
2022-11-14T17:53:34.736Z,50.20
2022-11-14T17:56:24.643Z,50.30
2022-11-14T17:59:12.281Z,50.50
2022-11-14T18:06:52.801Z,50.00
2022-11-14T18:09:41.425Z,50.00
2022-11-14T18:12:29.281Z,50.30
2022-11-14T18:15:17.040Z,50.40
2022-11-14T18:18:04.919Z,50.50
2022-11-14T18:20:52.199Z,50.50
2022-11-14T18:23:41.240Z,50.50
2022-11-14T18:31:20.317Z,50.20
2022-11-14T18:34:07.713Z,50.20
2022-11-14T18:36:55.246Z,50.10
2022-11-14T18:39:43.471Z,50.20
2022-11-14T18:42:32.238Z,50.40
2022-11-14T18:45:19.662Z,50.60
2022-11-14T18:48:08.056Z,50.60
2022-11-14T18:51:01.034Z,50.50
2022-11-14T18:53:48.779Z,50.40
2022-11-14T18:56:37.649Z,50.40
2022-11-14T19:04:19.762Z,49.80
2022-11-14T19:07:07.203Z,50.10
2022-11-14T19:09:54.617Z,50.00
2022-11-14T19:12:42.901Z,50.10
2022-11-14T19:15:30.453Z,50.10
2022-11-14T19:18:17.641Z,50.00
2022-11-14T19:21:06.185Z,50.20
2022-11-14T19:23:53.872Z,50.10
2022-11-14T19:31:33.211Z,50.10
2022-11-14T19:34:20.433Z,50.40
2022-11-14T19:37:07.913Z,50.50
2022-11-14T19:39:55.602Z,50.40
2022-11-14T19:42:43.363Z,50.50
2022-11-14T19:45:30.273Z,50.30
2022-11-14T19:48:19.280Z,50.60
2022-11-14T19:51:08.720Z,50.60
2022-11-14T19:53:58.236Z,50.60
2022-11-14T19:56:45.670Z,51.20
2022-11-14T19:59:33.242Z,50.50
2022-11-14T20:02:20.173Z,50.50
2022-11-14T20:05:10.821Z,50.30
2022-11-14T20:07:58.021Z,50.60
2022-11-14T20:10:57.075Z,50.80
2022-11-14T20:13:44.675Z,51.80
2022-11-14T20:16:34.917Z,51.20
2022-11-14T20:19:22.172Z,51.20
2022-11-14T20:22:11.258Z,51.10
2022-11-14T20:24:58.501Z,51.60
2022-11-14T20:27:46.049Z,51.00
2022-11-14T20:30:33.030Z,51.10
2022-11-14T20:33:20.731Z,51.00
2022-11-14T20:36:12.259Z,51.00
2022-11-14T20:39:01.136Z,50.90
2022-11-14T20:41:48.443Z,51.10
2022-11-14T20:44:35.970Z,50.90
2022-11-14T20:47:23.296Z,50.90
2022-11-14T20:50:11.328Z,50.60
2022-11-14T20:52:58.242Z,50.50
2022-11-14T20:55:53.635Z,50.70
2022-11-14T20:58:42.191Z,50.70
2022-11-14T21:01:29.779Z,51.10
2022-11-14T21:04:17.370Z,50.50
2022-11-14T21:07:04.590Z,50.50
2022-11-14T21:10:12.927Z,50.40
2022-11-14T21:13:19.380Z,50.40
2022-11-14T21:16:10.138Z,50.40
2022-11-14T21:18:58.830Z,50.60
2022-11-14T21:21:46.224Z,51.20
2022-11-14T21:24:38.395Z,50.60
2022-11-14T21:27:26.749Z,50.60
2022-11-14T21:30:16.150Z,50.40
2022-11-14T21:33:03.432Z,50.30
2022-11-14T21:35:51.063Z,50.50
2022-11-14T21:38:37.996Z,50.20
2022-11-14T21:41:28.037Z,50.50
2022-11-14T21:44:18.996Z,50.40
2022-11-14T21:47:07.861Z,50.60
2022-11-14T21:50:00.895Z,50.70
2022-11-14T21:52:48.678Z,50.60
2022-11-14T21:55:35.634Z,50.80
2022-11-14T21:58:23.097Z,50.70
2022-11-14T22:01:12.968Z,50.60
2022-11-14T22:04:12.490Z,50.40
2022-11-14T22:07:00.209Z,50.20
2022-11-14T22:09:47.484Z,50.40
2022-11-14T22:12:35.343Z,50.50
2022-11-14T22:15:22.491Z,50.50
2022-11-14T22:18:09.384Z,51.30
2022-11-14T22:20:59.661Z,50.60
2022-11-14T22:23:46.678Z,50.60
2022-11-14T22:26:36.471Z,51.40
2022-11-14T22:29:23.521Z,50.60
2022-11-14T22:32:11.007Z,50.70
2022-11-14T22:34:57.733Z,51.70
2022-11-14T22:37:46.410Z,50.90
2022-11-14T22:40:33.235Z,51.30
2022-11-14T22:43:22.416Z,51.50
2022-11-14T22:46:11.197Z,51.50
2022-11-14T22:48:59.305Z,51.70
2022-11-14T22:51:46.152Z,51.70
2022-11-14T22:54:35.020Z,51.80
2022-11-14T22:57:22.171Z,51.60
2022-11-14T23:00:11.935Z,51.60
2022-11-14T23:02:59.196Z,51.50
2022-11-14T23:05:47.434Z,51.50
2022-11-14T23:08:36.164Z,51.30
2022-11-14T23:11:28.399Z,51.30
2022-11-14T23:14:15.649Z,51.40
2022-11-14T23:17:02.866Z,51.40
2022-11-14T23:19:49.681Z,51.40
2022-11-14T23:22:37.251Z,51.60
2022-11-14T23:25:25.253Z,51.70
2022-11-14T23:28:13.894Z,51.70
2022-11-14T23:31:02.567Z,51.90
2022-11-14T23:33:52.416Z,52.10
2022-11-14T23:36:39.650Z,52.20
2022-11-14T23:39:27.005Z,52.40
2022-11-14T23:42:14.192Z,52.20
2022-11-14T23:49:53.706Z,52.30
2022-11-14T23:52:40.868Z,52.00
2022-11-14T23:55:28.186Z,52.40
2022-11-14T23:58:15.254Z,51.80
